createdAt,value
2023-05-10T00:01:23.038Z,10.79
2023-05-10T00:03:50.509Z,10.87
2023-05-10T00:06:17.618Z,10.87
2023-05-10T00:08:44.953Z,10.85
2023-05-10T00:11:11.878Z,10.82
2023-05-10T00:13:39.065Z,10.80
2023-05-10T00:16:06.222Z,10.88
2023-05-10T00:18:33.395Z,10.90
2023-05-10T00:21:00.487Z,10.87
2023-05-10T00:23:27.771Z,10.85
2023-05-10T00:25:56.858Z,10.88
2023-05-10T00:28:24.026Z,10.86
2023-05-10T00:30:50.815Z,10.91
2023-05-10T00:33:18.014Z,10.90
2023-05-10T00:35:44.889Z,10.88
2023-05-10T00:38:12.131Z,10.84
2023-05-10T00:40:39.463Z,10.83
2023-05-10T00:43:11.880Z,10.83
2023-05-10T00:45:41.039Z,10.86
2023-05-10T00:48:08.509Z,10.81
2023-05-10T00:50:35.923Z,10.78
2023-05-10T00:53:03.622Z,10.70
2023-05-10T00:55:32.796Z,10.68
2023-05-10T00:58:00.111Z,10.70
2023-05-10T01:00:27.084Z,10.65
2023-05-10T01:02:54.783Z,10.63
2023-05-10T01:05:22.929Z,10.66
2023-05-10T01:07:51.943Z,10.55
2023-05-10T01:10:19.501Z,10.55
2023-05-10T01:12:48.140Z,10.53
2023-05-10T01:15:16.473Z,10.51
2023-05-10T01:17:46.370Z,10.47
2023-05-10T01:20:13.897Z,10.41
2023-05-10T01:22:47.168Z,10.38
2023-05-10T01:25:23.300Z,10.31
2023-05-10T01:27:56.322Z,10.18
2023-05-10T01:30:32.466Z,9.99
2023-05-10T01:33:27.016Z,9.98
2023-05-10T01:36:17.212Z,9.96
2023-05-10T01:38:44.385Z,9.86
2023-05-10T01:41:18.108Z,9.75
2023-05-10T01:43:50.999Z,9.64
2023-05-10T01:46:21.699Z,9.65
2023-05-10T01:48:49.985Z,9.66
2023-05-10T01:51:20.128Z,9.63
2023-05-10T01:53:48.819Z,9.57
2023-05-10T01:56:18.015Z,9.48
2023-05-10T01:58:48.407Z,9.43
2023-05-10T02:01:16.251Z,9.43
2023-05-10T02:03:44.044Z,9.42
2023-05-10T02:06:13.866Z,9.41
2023-05-10T02:08:41.226Z,9.37
2023-05-10T02:11:09.239Z,9.36
2023-05-10T02:13:37.611Z,9.35
2023-05-10T02:16:06.117Z,9.33
2023-05-10T02:18:34.119Z,9.34
2023-05-10T02:21:03.058Z,9.30
2023-05-10T02:23:30.894Z,9.26
2023-05-10T02:25:58.308Z,9.22
2023-05-10T02:28:26.686Z,9.28
2023-05-10T02:30:54.681Z,9.20
2023-05-10T02:33:22.425Z,9.21
2023-05-10T02:35:51.381Z,9.19
2023-05-10T02:38:20.033Z,9.17
2023-05-10T02:40:48.001Z,9.13
2023-05-10T02:43:18.127Z,9.14
2023-05-10T02:45:49.209Z,9.16
2023-05-10T02:48:18.852Z,9.11
2023-05-10T02:50:52.477Z,9.02
2023-05-10T02:53:24.357Z,9.00
2023-05-10T02:55:53.059Z,9.00
2023-05-10T02:58:21.896Z,8.96
2023-05-10T03:00:49.018Z,8.92
2023-05-10T03:03:15.768Z,8.88
2023-05-10T03:05:42.914Z,8.89
2023-05-10T03:08:10.366Z,8.81
2023-05-10T03:10:42.418Z,8.78
2023-05-10T03:13:21.782Z,8.75
2023-05-10T03:16:15.601Z,8.73
2023-05-10T03:19:08.074Z,8.72
2023-05-10T03:21:36.528Z,8.74
2023-05-10T03:24:12.824Z,8.65
2023-05-10T03:26:41.207Z,8.59
2023-05-10T03:29:14.013Z,8.53
2023-05-10T03:31:41.188Z,8.50
2023-05-10T03:34:08.397Z,8.49
2023-05-10T03:36:35.637Z,8.46
2023-05-10T03:39:02.577Z,8.49
2023-05-10T03:41:30.240Z,8.50
2023-05-10T03:43:57.086Z,8.48
2023-05-10T03:46:24.241Z,8.47
2023-05-10T03:48:51.112Z,8.42
2023-05-10T03:51:19.121Z,8.45
2023-05-10T03:53:46.024Z,8.43
2023-05-10T03:56:13.575Z,8.51
2023-05-10T03:58:42.779Z,8.57
2023-05-10T04:01:09.888Z,8.76
2023-05-10T04:03:37.647Z,8.85
2023-05-10T04:06:10.209Z,8.81
2023-05-10T04:08:37.215Z,8.80
2023-05-10T04:11:11.800Z,8.79
2023-05-10T04:13:39.225Z,8.89
2023-05-10T04:16:06.575Z,9.08
2023-05-10T04:18:33.467Z,9.16
2023-05-10T04:21:00.590Z,9.17
2023-05-10T04:23:30.271Z,9.20
2023-05-10T04:26:01.624Z,9.26
2023-05-10T04:28:28.755Z,9.30
2023-05-10T04:31:01.886Z,9.46
2023-05-10T04:33:28.813Z,9.63
2023-05-10T04:35:56.170Z,9.66
2023-05-10T04:38:25.653Z,9.75
2023-05-10T04:40:55.998Z,9.78
2023-05-10T04:43:24.898Z,9.88
2023-05-10T04:45:52.117Z,9.93
2023-05-10T04:48:19.254Z,10.01
2023-05-10T04:50:46.389Z,10.16
2023-05-10T04:53:15.866Z,10.30
2023-05-10T04:55:43.212Z,10.51
2023-05-10T04:58:10.056Z,10.55
2023-05-10T05:00:37.243Z,10.59
2023-05-10T05:03:04.433Z,10.63
2023-05-10T05:05:33.988Z,10.76
2023-05-10T05:08:00.914Z,10.86
2023-05-10T05:10:28.102Z,11.02
2023-05-10T05:12:54.928Z,11.20
2023-05-10T05:15:22.148Z,11.66
2023-05-10T05:17:51.501Z,12.73
2023-05-10T05:20:20.055Z,14.42
2023-05-10T05:22:46.936Z,15.25
2023-05-10T05:25:14.223Z,14.98
2023-05-10T05:27:43.572Z,15.38
2023-05-10T05:30:11.006Z,15.85
2023-05-10T05:32:37.962Z,15.49
2023-05-10T05:35:05.307Z,14.91
2023-05-10T05:37:32.412Z,14.44
2023-05-10T05:40:02.726Z,14.22
2023-05-10T05:42:29.853Z,14.05
2023-05-10T05:44:59.183Z,14.06
2023-05-10T05:47:26.232Z,14.09
2023-05-10T05:49:53.637Z,14.01
2023-05-10T05:52:22.337Z,14.08
2023-05-10T05:54:49.270Z,14.25
2023-05-10T05:57:16.852Z,14.35
2023-05-10T05:59:45.012Z,14.36
2023-05-10T06:02:12.273Z,14.59
2023-05-10T06:04:39.370Z,14.67
2023-05-10T06:07:06.825Z,14.43
2023-05-10T06:09:33.674Z,14.84
2023-05-10T06:12:00.807Z,15.23
2023-05-10T06:14:27.788Z,15.00
2023-05-10T06:16:54.967Z,15.03
2023-05-10T06:19:21.806Z,15.13
2023-05-10T06:21:49.097Z,15.03
2023-05-10T06:24:16.148Z,14.99
2023-05-10T06:26:43.517Z,15.19
2023-05-10T06:29:10.396Z,15.58
2023-05-10T06:31:38.461Z,15.51
2023-05-10T06:34:05.320Z,15.88
2023-05-10T06:36:35.143Z,16.71
2023-05-10T06:39:02.123Z,18.03
2023-05-10T06:41:29.350Z,18.11
2023-05-10T06:43:56.117Z,18.61
2023-05-10T06:46:23.450Z,19.26
2023-05-10T06:48:50.650Z,20.20
2023-05-10T06:51:18.642Z,20.38
2023-05-10T06:53:45.532Z,21.24
2023-05-10T06:56:12.756Z,21.19
2023-05-10T06:58:39.727Z,21.89
2023-05-10T07:01:07.040Z,21.20
2023-05-10T07:03:34.033Z,21.07
2023-05-10T07:06:02.929Z,21.98
2023-05-10T07:08:31.033Z,22.61
2023-05-10T07:11:05.201Z,22.72
2023-05-10T07:13:35.025Z,23.22
2023-05-10T07:16:03.149Z,23.85
2023-05-10T07:18:30.057Z,23.60
2023-05-10T07:20:57.862Z,23.06
2023-05-10T07:23:24.926Z,23.78
2023-05-10T07:25:55.171Z,22.70
2023-05-10T07:28:22.866Z,23.53
2023-05-10T07:30:49.992Z,23.06
2023-05-10T07:33:19.259Z,23.18
2023-05-10T07:35:46.465Z,22.72
2023-05-10T07:38:15.736Z,23.14
2023-05-10T07:40:45.506Z,22.87
2023-05-10T07:43:12.366Z,23.20
2023-05-10T07:45:41.853Z,24.00
2023-05-10T07:48:11.170Z,24.64
2023-05-10T07:50:38.558Z,23.96
2023-05-10T07:53:05.617Z,24.49
2023-05-10T07:55:35.284Z,23.95
2023-05-10T07:58:02.263Z,24.02
2023-05-10T08:00:29.609Z,23.69
2023-05-10T08:02:56.540Z,23.41
2023-05-10T08:05:24.016Z,23.73
2023-05-10T08:07:51.130Z,23.19
2023-05-10T08:10:18.457Z,23.75
2023-05-10T08:12:45.569Z,22.17
2023-05-10T08:15:12.741Z,22.74
2023-05-10T08:17:39.650Z,23.86
2023-05-10T08:20:08.911Z,23.64
2023-05-10T08:22:35.855Z,23.83
2023-05-10T08:25:03.128Z,23.60
2023-05-10T08:27:29.959Z,24.36
2023-05-10T08:29:57.337Z,24.04
2023-05-10T08:32:26.784Z,23.73
2023-05-10T08:34:54.254Z,24.20
2023-05-10T08:37:21.205Z,23.31
2023-05-10T08:39:50.951Z,23.62
2023-05-10T08:42:20.256Z,24.04
2023-05-10T08:44:49.725Z,22.77
2023-05-10T08:47:17.507Z,21.57
2023-05-10T08:49:45.630Z,20.72
2023-05-10T08:52:14.182Z,20.64
2023-05-10T08:54:42.188Z,19.89
2023-05-10T08:57:11.737Z,19.33
2023-05-10T08:59:40.543Z,18.58
2023-05-10T09:02:11.534Z,18.43
2023-05-10T09:04:38.803Z,17.93
2023-05-10T09:07:05.988Z,18.02
2023-05-10T09:09:33.365Z,19.30
2023-05-10T09:12:00.875Z,21.04
2023-05-10T09:14:28.773Z,20.12
2023-05-10T09:16:57.385Z,19.26
2023-05-10T09:19:24.804Z,18.79
2023-05-10T09:21:51.669Z,18.76
2023-05-10T09:24:18.801Z,18.46
2023-05-10T09:26:52.608Z,17.91
2023-05-10T09:29:19.973Z,18.77
2023-05-10T09:31:52.509Z,18.71
2023-05-10T09:34:20.876Z,18.92
2023-05-10T09:36:52.023Z,18.85
2023-05-10T09:39:19.761Z,18.97
2023-05-10T09:41:46.911Z,18.56
2023-05-10T09:44:18.811Z,18.53
2023-05-10T09:46:49.614Z,19.24
2023-05-10T09:49:19.262Z,20.47
2023-05-10T09:51:46.167Z,22.24
2023-05-10T09:54:17.339Z,22.26
2023-05-10T09:56:44.213Z,22.58
2023-05-10T09:59:12.951Z,22.47
2023-05-10T10:01:40.252Z,23.41
2023-05-10T10:04:10.799Z,23.57
2023-05-10T10:06:40.917Z,23.98
2023-05-10T10:09:08.853Z,23.50
2023-05-10T10:11:36.675Z,22.33
2023-05-10T10:14:04.148Z,21.62
2023-05-10T10:16:31.521Z,21.06
2023-05-10T10:18:59.542Z,21.97
2023-05-10T10:21:26.684Z,21.94
2023-05-10T10:23:54.195Z,23.19
2023-05-10T10:26:22.103Z,22.87
2023-05-10T10:28:53.067Z,22.01
2023-05-10T10:31:35.810Z,22.49
2023-05-10T10:34:03.582Z,23.04
2023-05-10T10:36:34.944Z,22.19
2023-05-10T10:39:02.577Z,22.54
2023-05-10T10:41:31.094Z,21.29
2023-05-10T10:44:16.979Z,20.50
2023-05-10T10:47:02.560Z,19.64
2023-05-10T10:49:33.047Z,19.70
2023-05-10T10:52:18.925Z,19.58
2023-05-10T10:54:51.163Z,20.06
2023-05-10T10:57:19.110Z,20.19
2023-05-10T10:59:46.577Z,20.63
2023-05-10T11:02:32.426Z,21.40
2023-05-10T11:05:00.281Z,21.28
2023-05-10T11:07:27.384Z,21.20
2023-05-10T11:09:55.134Z,21.83
2023-05-10T11:12:22.056Z,21.71
2023-05-10T11:14:52.468Z,22.07
2023-05-10T11:17:27.593Z,21.79
2023-05-10T11:20:10.929Z,20.96
2023-05-10T11:22:54.074Z,21.59
2023-05-10T11:25:21.535Z,21.24
2023-05-10T11:27:49.040Z,21.18
2023-05-10T11:30:19.063Z,20.91
2023-05-10T11:32:46.268Z,20.34
2023-05-10T11:35:13.679Z,20.66
2023-05-10T11:37:44.782Z,19.98
2023-05-10T11:40:12.289Z,20.04
2023-05-10T11:42:39.287Z,20.57
2023-05-10T11:45:06.900Z,21.17
2023-05-10T11:47:38.165Z,20.92
2023-05-10T11:50:06.347Z,20.52
2023-05-10T11:52:37.229Z,20.56
2023-05-10T11:55:04.647Z,20.86
2023-05-10T11:57:32.385Z,20.28
2023-05-10T11:59:59.596Z,20.49
2023-05-10T12:02:27.033Z,20.81
2023-05-10T12:04:56.203Z,20.15
2023-05-10T12:07:26.869Z,20.17
2023-05-10T12:10:16.174Z,20.36
2023-05-10T12:12:44.621Z,19.91
2023-05-10T12:15:20.224Z,19.76
2023-05-10T12:17:47.560Z,19.34
2023-05-10T12:20:22.144Z,19.43
2023-05-10T12:22:53.591Z,19.46
2023-05-10T12:25:22.182Z,19.59
2023-05-10T12:30:41.992Z,19.67
2023-05-10T12:33:08.893Z,20.05
2023-05-10T12:35:45.474Z,19.97
2023-05-10T12:38:27.935Z,19.72
2023-05-10T12:40:55.244Z,19.74
2023-05-10T12:43:22.048Z,19.27
2023-05-10T12:45:51.819Z,19.29
2023-05-10T12:48:18.663Z,19.41
2023-05-10T12:50:46.722Z,19.41
2023-05-10T12:53:15.059Z,19.76
2023-05-10T12:55:42.761Z,19.57
2023-05-10T12:58:09.924Z,19.61
2023-05-10T13:00:38.978Z,19.91
2023-05-10T13:03:08.730Z,19.96
2023-05-10T13:05:35.845Z,19.92
2023-05-10T13:08:02.808Z,19.76
2023-05-10T13:10:30.500Z,19.83
2023-05-10T13:12:57.865Z,19.62
2023-05-10T13:15:25.402Z,19.45
2023-05-10T13:17:52.262Z,19.73
2023-05-10T13:20:19.615Z,19.78
2023-05-10T13:22:46.644Z,19.40
2023-05-10T13:25:13.867Z,19.38
2023-05-10T13:27:41.006Z,19.47
2023-05-10T13:30:12.305Z,19.71
2023-05-10T13:32:39.555Z,19.50
2023-05-10T13:35:07.807Z,19.87
2023-05-10T13:37:38.312Z,19.63
2023-05-10T13:40:05.964Z,19.80
2023-05-10T13:42:34.991Z,19.70
2023-05-10T13:45:05.132Z,20.06
2023-05-10T13:47:32.154Z,19.93
2023-05-10T13:49:59.494Z,19.95
2023-05-10T13:52:27.028Z,19.39
2023-05-10T13:54:56.238Z,19.33
2023-05-10T13:57:24.083Z,19.53
2023-05-10T13:59:51.611Z,19.54
2023-05-10T14:02:18.514Z,19.71
2023-05-10T14:04:45.741Z,19.96
2023-05-10T14:07:12.609Z,20.12
2023-05-10T14:09:39.727Z,19.76
2023-05-10T14:12:06.690Z,19.34
2023-05-10T14:14:34.094Z,19.41
2023-05-10T14:17:01.290Z,19.28
2023-05-10T14:19:28.813Z,19.31
2023-05-10T14:21:55.800Z,19.31
2023-05-10T14:24:23.100Z,19.05
2023-05-10T14:26:49.936Z,19.02
2023-05-10T14:29:17.142Z,18.93
2023-05-10T14:31:43.999Z,18.94
2023-05-10T14:34:13.527Z,19.05
2023-05-10T14:36:41.206Z,18.88
2023-05-10T14:39:09.005Z,18.90
2023-05-10T14:41:36.598Z,19.13
2023-05-10T14:44:04.448Z,19.46
2023-05-10T14:46:31.331Z,19.51
2023-05-10T14:48:58.668Z,19.56
2023-05-10T14:51:25.598Z,19.57
2023-05-10T14:53:52.814Z,19.74
2023-05-10T14:56:23.091Z,19.60
2023-05-10T14:58:51.049Z,19.66
2023-05-10T15:01:18.395Z,19.70
2023-05-10T15:03:46.006Z,19.60
2023-05-10T15:06:15.250Z,19.59
2023-05-10T15:08:42.402Z,19.49
2023-05-10T15:11:09.202Z,19.38
2023-05-10T15:13:36.914Z,19.29
2023-05-10T15:16:03.959Z,19.08
2023-05-10T15:18:31.451Z,19.17
2023-05-10T15:20:59.451Z,19.10
2023-05-10T15:23:26.620Z,19.15
2023-05-10T15:25:56.841Z,19.02
2023-05-10T15:28:24.087Z,18.99
2023-05-10T15:30:51.284Z,18.89
2023-05-10T15:33:18.632Z,18.83
2023-05-10T15:35:45.775Z,18.80
2023-05-10T15:38:13.051Z,18.87
2023-05-10T15:40:40.079Z,18.75
2023-05-10T15:43:07.499Z,18.75
2023-05-10T15:45:36.752Z,18.87
2023-05-10T15:48:05.033Z,19.03
2023-05-10T15:50:34.212Z,19.06
2023-05-10T15:53:01.546Z,19.13
2023-05-10T15:55:28.995Z,19.09
2023-05-10T15:57:56.400Z,19.15
2023-05-10T16:00:23.314Z,18.86
2023-05-10T16:02:52.305Z,18.89
2023-05-10T16:05:19.679Z,18.87
2023-05-10T16:07:47.806Z,18.89
2023-05-10T16:10:14.704Z,18.96
2023-05-10T16:12:41.955Z,18.93
2023-05-10T16:15:09.129Z,18.91
2023-05-10T16:17:38.785Z,18.75
2023-05-10T16:20:06.167Z,18.48
2023-05-10T16:22:33.653Z,18.37
2023-05-10T16:25:00.546Z,18.37
2023-05-10T16:27:30.346Z,18.36
2023-05-10T16:29:57.314Z,18.28
2023-05-10T16:32:27.602Z,18.28
2023-05-10T16:34:54.533Z,18.21
2023-05-10T16:37:24.120Z,18.19
2023-05-10T16:39:50.928Z,18.12
2023-05-10T16:42:18.228Z,18.01
2023-05-10T16:44:47.677Z,17.96
2023-05-10T16:47:14.901Z,17.89
2023-05-10T16:49:42.316Z,17.87
2023-05-10T16:52:12.598Z,17.81
2023-05-10T16:54:39.725Z,17.81
2023-05-10T16:57:07.442Z,17.83
2023-05-10T16:59:34.311Z,17.79
2023-05-10T17:02:01.516Z,17.73
2023-05-10T17:04:28.725Z,17.73
2023-05-10T17:06:55.961Z,17.68
2023-05-10T17:09:22.770Z,17.65
2023-05-10T17:11:50.098Z,17.66
2023-05-10T17:14:19.432Z,17.63
2023-05-10T17:16:48.165Z,17.66
2023-05-10T17:19:15.494Z,17.64
2023-05-10T17:21:43.055Z,17.58
2023-05-10T17:24:17.704Z,17.49
2023-05-10T17:26:45.751Z,17.49
2023-05-10T17:29:14.177Z,17.39
2023-05-10T17:31:41.348Z,17.34
2023-05-10T17:34:08.490Z,17.30
2023-05-10T17:36:36.020Z,17.28
2023-05-10T17:39:03.057Z,17.26
2023-05-10T17:41:30.222Z,17.22
2023-05-10T17:43:57.180Z,17.09
2023-05-10T17:46:24.428Z,17.02
2023-05-10T17:48:51.374Z,16.96
2023-05-10T17:51:20.890Z,16.88
2023-05-10T17:53:47.770Z,16.83
2023-05-10T17:56:14.897Z,16.81
2023-05-10T17:58:42.169Z,16.79
2023-05-10T18:01:09.456Z,16.80
2023-05-10T18:03:36.717Z,16.83
2023-05-10T18:06:04.523Z,16.71
2023-05-10T18:08:31.580Z,16.64
2023-05-10T18:11:01.223Z,16.57
2023-05-10T18:13:28.160Z,16.51
2023-05-10T18:15:55.340Z,16.49
2023-05-10T18:18:24.550Z,16.44
2023-05-10T18:20:56.804Z,16.42
2023-05-10T18:23:26.446Z,16.41
2023-05-10T18:25:53.646Z,16.30
2023-05-10T18:28:20.847Z,16.22
2023-05-10T18:30:48.120Z,16.15
2023-05-10T18:33:15.115Z,16.11
2023-05-10T18:35:42.408Z,16.01
2023-05-10T18:38:13.679Z,15.98
2023-05-10T18:40:43.578Z,16.02
2023-05-10T18:43:10.842Z,16.00
2023-05-10T18:45:41.155Z,16.04
2023-05-10T18:48:08.522Z,15.96
2023-05-10T18:50:35.894Z,15.92
2023-05-10T18:53:05.164Z,15.89
2023-05-10T18:55:32.575Z,15.83
2023-05-10T18:57:59.413Z,15.76
2023-05-10T19:00:26.664Z,15.76
2023-05-10T19:02:54.022Z,15.73
2023-05-10T19:05:21.686Z,15.69
2023-05-10T19:07:49.039Z,15.67
2023-05-10T19:10:21.763Z,15.62
2023-05-10T19:12:49.160Z,15.65
2023-05-10T19:15:21.753Z,15.63
2023-05-10T19:17:51.764Z,15.65
2023-05-10T19:20:19.683Z,15.67
2023-05-10T19:23:01.992Z,15.67
2023-05-10T19:25:37.685Z,15.68
2023-05-10T19:28:04.865Z,15.62
2023-05-10T19:30:32.436Z,15.55
2023-05-10T19:32:59.713Z,15.50
2023-05-10T19:35:27.039Z,15.50
2023-05-10T19:37:54.291Z,15.45
2023-05-10T19:40:22.092Z,15.39
2023-05-10T19:42:49.061Z,15.24
2023-05-10T19:45:16.907Z,15.13
2023-05-10T19:47:44.358Z,15.08
2023-05-10T19:50:14.347Z,14.99
2023-05-10T19:52:41.519Z,14.89
2023-05-10T19:55:09.653Z,14.81
2023-05-10T19:57:39.630Z,14.76
2023-05-10T20:00:07.654Z,14.71
2023-05-10T20:02:38.353Z,14.73
2023-05-10T20:05:05.996Z,14.66
2023-05-10T20:07:33.114Z,14.61
2023-05-10T20:10:00.588Z,14.55
2023-05-10T20:12:27.993Z,14.53
2023-05-10T20:14:55.240Z,14.52
2023-05-10T20:17:22.792Z,14.47
2023-05-10T20:19:50.462Z,14.46
2023-05-10T20:22:17.635Z,14.48
2023-05-10T20:24:44.811Z,14.52
2023-05-10T20:27:12.008Z,14.53
2023-05-10T20:29:39.362Z,14.57
2023-05-10T20:32:08.677Z,14.56
2023-05-10T20:34:35.862Z,14.55
2023-05-10T20:37:03.038Z,14.50
2023-05-10T20:39:32.913Z,14.50
2023-05-10T20:42:00.300Z,14.47
2023-05-10T20:44:27.453Z,14.50
2023-05-10T20:46:54.517Z,14.52
2023-05-10T20:49:24.333Z,14.51
2023-05-10T20:51:51.527Z,14.47
2023-05-10T20:54:22.120Z,14.49
2023-05-10T20:56:49.370Z,14.48
2023-05-10T20:59:16.673Z,14.49
2023-05-10T21:01:44.027Z,14.41
2023-05-10T21:04:11.626Z,14.45
2023-05-10T21:06:38.610Z,14.39
2023-05-10T21:09:05.820Z,14.46
2023-05-10T21:11:35.353Z,14.45
2023-05-10T21:14:03.254Z,14.34
2023-05-10T21:16:33.104Z,14.33
2023-05-10T21:19:00.401Z,14.33
2023-05-10T21:21:27.411Z,14.29
2023-05-10T21:23:54.639Z,14.19
2023-05-10T21:26:22.149Z,14.18
2023-05-10T21:28:49.373Z,14.19
2023-05-10T21:31:17.071Z,14.13
2023-05-10T21:33:44.408Z,14.12
2023-05-10T21:36:11.710Z,14.07
2023-05-10T21:38:39.568Z,14.10
2023-05-10T21:41:09.271Z,14.14
2023-05-10T21:43:36.416Z,14.09
2023-05-10T21:46:04.123Z,14.07
2023-05-10T21:48:31.644Z,14.12
2023-05-10T21:50:59.129Z,14.09
2023-05-10T21:53:26.236Z,14.06
2023-05-10T21:55:55.277Z,14.06
2023-05-10T21:58:23.313Z,14.03
2023-05-10T22:00:50.248Z,13.98
2023-05-10T22:03:18.181Z,13.92
2023-05-10T22:05:45.117Z,13.92
2023-05-10T22:08:12.346Z,13.89
2023-05-10T22:10:39.230Z,13.89
2023-05-10T22:13:06.868Z,13.93
2023-05-10T22:15:36.397Z,13.88
2023-05-10T22:18:04.068Z,13.85
2023-05-10T22:20:31.098Z,13.82
2023-05-10T22:22:58.455Z,13.89
2023-05-10T22:25:25.464Z,13.85
2023-05-10T22:27:52.636Z,13.78
2023-05-10T22:30:20.169Z,13.85
2023-05-10T22:32:47.855Z,13.88
2023-05-10T22:35:14.674Z,13.88
2023-05-10T22:37:41.933Z,13.85
2023-05-10T22:40:09.170Z,13.90
2023-05-10T22:42:36.674Z,13.94
2023-05-10T22:45:03.592Z,13.87
2023-05-10T22:47:31.453Z,13.90
2023-05-10T22:49:58.390Z,13.90
2023-05-10T22:52:25.580Z,13.90
2023-05-10T22:54:52.620Z,13.88
2023-05-10T22:57:19.811Z,13.82
2023-05-10T22:59:48.200Z,13.74
2023-05-10T23:02:15.644Z,13.69
2023-05-10T23:04:45.001Z,13.74
2023-05-10T23:07:12.209Z,13.71
2023-05-10T23:09:39.065Z,13.70
2023-05-10T23:12:06.348Z,13.66
2023-05-10T23:14:35.636Z,13.62
2023-05-10T23:17:03.192Z,13.57
2023-05-10T23:19:30.029Z,13.52
2023-05-10T23:21:57.256Z,13.55
2023-05-10T23:24:24.518Z,13.55
2023-05-10T23:26:51.704Z,13.49
2023-05-10T23:29:18.547Z,13.44
2023-05-10T23:31:49.090Z,13.43
2023-05-10T23:34:16.002Z,13.41
2023-05-10T23:36:43.411Z,13.46
2023-05-10T23:39:10.213Z,13.44
2023-05-10T23:41:37.473Z,13.45
2023-05-10T23:44:07.184Z,13.36
2023-05-10T23:46:37.205Z,13.28
2023-05-10T23:49:04.065Z,13.23
2023-05-10T23:51:31.212Z,13.19
2023-05-10T23:53:58.198Z,13.16
2023-05-10T23:56:25.327Z,13.18
2023-05-10T23:58:52.377Z,13.18
